Time;durP1;ratioP1;P1;durP2;ratioP2;P2;SDS_P1;SDS_P2;PMS_P1;PMS_P2;Temp;Humidity;BMP_temperature;BMP_pressure;BME280_temperature;BME280_humidity;BME280_pressure;Samples;Min_cycle;Max_cycle;Signal;HPM_P1;HPM_P2
2022/11/27 00:01:00;;;;;;;6.95;4.90;;;;;;;4.09;94.67;101606.06;1789442;79;21225;-87
2022/11/27 00:03:27;;;;;;;9.03;5.53;;;;;;;4.08;94.80;101601.73;1789472;79;20888;-87
2022/11/27 00:05:57;;;;;;;7.03;4.42;;;;;;;4.04;94.74;101600.06;1789609;79;20934;-86
2022/11/27 00:08:24;;;;;;;5.40;3.87;;;;;;;4.01;94.71;101604.02;1789213;79;20863;-86
2022/11/27 00:10:51;;;;;;;6.58;4.95;;;;;;;3.93;94.69;101598.98;1789293;80;20899;-86
2022/11/27 00:13:17;;;;;;;4.78;3.87;;;;;;;3.90;95.06;101607.23;1789351;80;21138;-86
2022/11/27 00:15:47;;;;;;;5.60;4.15;;;;;;;3.93;95.34;101608.06;1789255;79;20891;-88
2022/11/27 00:18:14;;;;;;;7.33;4.67;;;;;;;3.95;95.25;101614.05;1789207;80;21432;-86
2022/11/27 00:20:40;;;;;;;5.30;3.87;;;;;;;3.95;95.29;101613.20;1789324;79;20947;-87
2022/11/27 00:23:07;;;;;;;5.95;3.75;;;;;;;3.95;95.19;101611.45;1789241;79;20970;-86
2022/11/27 00:25:34;;;;;;;5.37;3.85;;;;;;;3.98;95.40;101617.48;1789177;80;21152;-86
2022/11/27 00:28:00;;;;;;;7.40;3.80;;;;;;;3.99;95.29;101612.27;1789282;79;20927;-85
2022/11/27 00:30:26;;;;;;;5.37;3.70;;;;;;;3.99;95.16;101609.68;1789215;79;20915;-84
2022/11/27 00:32:53;;;;;;;4.70;4.05;;;;;;;4.02;95.32;101609.61;1789436;80;20982;-85
2022/11/27 00:35:19;;;;;;;4.42;3.60;;;;;;;4.09;95.27;101609.07;1790366;80;20983;-85
2022/11/27 00:37:46;;;;;;;5.00;3.47;;;;;;;4.12;95.13;101612.48;1789735;80;21380;-85
2022/11/27 00:40:13;;;;;;;5.25;3.25;;;;;;;4.15;94.82;101611.56;1789402;79;20872;-87
2022/11/27 00:42:40;;;;;;;5.08;3.27;;;;;;;4.17;94.69;101612.84;1789445;79;20955;-87
2022/11/27 00:45:08;;;;;;;6.50;4.17;;;;;;;4.15;94.38;101612.42;1789456;79;20963;-87
2022/11/27 00:47:35;;;;;;;5.17;4.58;;;;;;;4.12;94.45;101606.44;1789352;79;21397;-87
2022/11/27 00:50:03;;;;;;;4.15;3.10;;;;;;;4.12;94.41;101615.53;1789441;79;21401;-86
2022/11/27 00:52:30;;;;;;;6.22;3.75;;;;;;;4.11;94.45;101611.20;1789291;80;20887;-87
2022/11/27 00:54:56;;;;;;;6.67;3.98;;;;;;;4.09;94.25;101608.66;1789560;80;21009;-88
2022/11/27 00:57:24;;;;;;;7.58;4.65;;;;;;;4.07;94.26;101607.82;1789316;80;21373;-85
2022/11/27 00:59:50;;;;;;;4.53;3.95;;;;;;;4.03;94.25;101611.34;1792159;79;21377;-87
2022/11/27 01:02:17;;;;;;;9.23;3.85;;;;;;;4.03;94.56;101608.75;1792732;80;21852;-87
2022/11/27 01:04:47;;;;;;;5.45;3.20;;;;;;;4.07;94.80;101610.42;1792618;79;20891;-87
2022/11/27 01:07:14;;;;;;;7.62;3.85;;;;;;;4.08;94.47;101611.27;1792604;80;20856;-86
2022/11/27 01:09:40;;;;;;;5.75;3.40;;;;;;;4.04;94.48;101608.30;1792644;80;20931;-88
2022/11/27 01:12:07;;;;;;;6.35;3.33;;;;;;;4.02;94.54;101601.83;1792658;79;21531;-88
2022/11/27 01:14:34;;;;;;;4.58;3.55;;;;;;;4.03;94.47;101605.30;1792701;80;21099;-87
2022/11/27 01:17:01;;;;;;;5.37;2.70;;;;;;;4.01;94.56;101605.32;1792667;80;20930;-87
2022/11/27 01:19:27;;;;;;;4.42;2.80;;;;;;;4.02;94.62;101604.88;1792907;80;20931;-87
2022/11/27 01:21:54;;;;;;;5.53;4.00;;;;;;;4.00;94.47;101604.04;1792611;80;20943;-87
2022/11/27 01:24:20;;;;;;;4.53;2.90;;;;;;;3.98;94.54;101605.39;1792686;80;21029;-87
2022/11/27 01:26:47;;;;;;;4.70;3.22;;;;;;;3.99;94.60;101612.72;1792809;79;21141;-85
2022/11/27 01:29:13;;;;;;;4.42;2.90;;;;;;;3.98;94.46;101609.70;1792564;79;20880;-86
2022/11/27 01:31:40;;;;;;;4.70;3.25;;;;;;;3.95;94.38;101612.75;1792946;80;20895;-86
2022/11/27 01:34:10;;;;;;;4.12;3.22;;;;;;;3.94;94.46;101612.35;1792564;79;21376;-86
2022/11/27 01:36:37;;;;;;;4.47;3.33;;;;;;;3.98;94.71;101611.88;1792507;80;20907;-87
2022/11/27 01:39:03;;;;;;;4.70;3.08;;;;;;;4.02;94.80;101600.53;1792552;80;21232;-86
2022/11/27 01:41:35;;;;;;;7.33;4.42;;;;;;;4.06;94.51;101609.14;1792763;79;20966;-86
2022/11/27 01:44:26;;;;;;;5.55;2.85;;;;;;;4.06;94.69;101609.14;1792759;79;21487;-86
2022/11/27 01:47:04;;;;;;;5.75;3.10;;;;;;;4.10;94.73;101610.80;1794274;80;20931;-86
2022/11/27 01:49:37;;;;;;;5.72;3.05;;;;;;;4.13;94.59;101609.44;1793472;79;20962;-86
2022/11/27 01:52:17;;;;;;;4.05;3.37;;;;;;;4.13;94.44;101612.88;1792890;80;21791;-87
2022/11/27 01:55:06;;;;;;;4.85;3.25;;;;;;;4.13;94.28;101612.88;1792982;79;21389;-87
2022/11/27 01:57:43;;;;;;;4.90;3.35;;;;;;;4.12;94.00;101618.12;1792602;79;20902;-87
2022/11/27 02:00:12;;;;;;;3.55;3.02;;;;;;;4.11;94.17;101618.98;1764551;80;20927;-86
2022/11/27 02:02:41;;;;;;;3.87;3.47;;;;;;;4.12;94.04;101622.87;1760362;80;21400;-88
2022/11/27 02:05:09;;;;;;;4.55;3.10;;;;;;;4.10;94.02;101623.33;1759901;81;21147;-86
2022/11/27 02:07:35;;;;;;;6.45;3.67;;;;;;;4.12;94.13;101627.20;1760179;81;20914;-86
2022/11/27 02:10:02;;;;;;;5.25;3.47;;;;;;;4.11;93.84;101620.28;1760095;80;20918;-87
2022/11/27 02:12:50;;;;;;;5.90;3.20;;;;;;;4.09;93.93;101622.93;1760053;81;20994;-86
2022/11/27 02:15:31;;;;;;;5.08;3.40;;;;;;;4.12;93.99;101625.46;1760124;81;20859;-85
2022/11/27 02:18:27;;;;;;;4.40;3.40;;;;;;;4.11;93.69;101621.59;1758519;80;21178;-85
2022/11/27 02:21:38;;;;;;;4.33;3.15;;;;;;;4.06;93.63;101616.47;1730339;81;20832;-86
2022/11/27 02:24:31;;;;;;;5.22;2.85;;;;;;;4.04;93.66;101626.02;1742122;82;20895;-86
2022/11/27 02:27:24;;;;;;;6.35;3.00;;;;;;;4.05;93.75;101625.61;1741952;82;20987;-86
2022/11/27 02:29:55;;;;;;;5.37;2.75;;;;;;;4.03;93.64;101632.11;1741878;82;20947;-86
2022/11/27 02:32:33;;;;;;;5.65;3.22;;;;;;;4.03;93.76;101636.45;1741911;82;21254;-87
2022/11/27 02:35:31;;;;;;;5.85;4.15;;;;;;;4.05;94.05;101639.43;1741811;82;20983;-86
2022/11/27 02:38:11;;;;;;;4.70;3.80;;;;;;;4.09;94.17;101637.20;1741715;82;21018;-85
2022/11/27 02:41:06;;;;;;;5.55;3.85;;;;;;;4.12;93.87;101636.30;1741603;81;20988;-85
2022/11/27 02:43:40;;;;;;;5.37;3.33;;;;;;;4.07;93.53;101642.86;1742485;82;20872;-86
2022/11/27 02:46:07;;;;;;;5.15;3.60;;;;;;;4.06;93.56;101646.77;1742634;82;21260;-85
2022/11/27 02:48:44;;;;;;;6.37;3.72;;;;;;;4.02;93.47;101638.61;1742479;82;21473;-82
2022/11/27 02:51:10;;;;;;;5.70;3.75;;;;;;;3.96;93.59;101639.59;1742621;82;21596;-85
2022/11/27 02:53:42;;;;;;;5.80;4.33;;;;;;;3.95;93.80;101644.34;1742675;82;20932;-84
2022/11/27 02:56:12;;;;;;;4.25;3.02;;;;;;;3.95;93.85;101643.05;1742803;82;20983;-86
2022/11/27 02:58:38;;;;;;;5.12;3.65;;;;;;;3.94;93.74;101643.94;1708652;82;21309;-87
2022/11/27 03:01:05;;;;;;;6.08;3.85;;;;;;;3.90;93.93;101641.83;1727056;83;21399;-86
2022/11/27 03:03:38;;;;;;;4.67;3.40;;;;;;;3.92;94.06;101649.14;1727186;81;20895;-87
2022/11/27 03:06:10;;;;;;;4.65;3.05;;;;;;;3.91;93.94;101647.45;1727109;81;20895;-84
2022/11/27 03:08:50;;;;;;;5.22;3.77;;;;;;;3.93;94.12;101651.30;1727341;83;21545;-85
2022/11/27 03:11:16;;;;;;;3.47;3.00;;;;;;;3.96;94.16;101643.48;1727334;83;21142;-86
2022/11/27 03:13:48;;;;;;;8.35;4.45;;;;;;;3.94;93.90;101641.34;1727301;83;20844;-86
2022/11/27 03:16:52;;;;;;;6.17;3.35;;;;;;;3.92;94.00;101641.36;1724301;83;20866;-86
2022/11/27 03:19:24;;;;;;;5.47;4.05;;;;;;;3.92;93.88;101644.41;1727275;81;20954;-86
2022/11/27 03:21:56;;;;;;;5.12;3.25;;;;;;;3.90;93.92;101643.13;1789180;79;21451;-85
2022/11/27 03:24:23;;;;;;;5.12;3.98;;;;;;;3.90;93.94;101651.35;1789260;80;21290;-84
2022/11/27 03:26:50;;;;;;;8.80;4.33;;;;;;;3.93;94.27;101650.00;1789193;79;20932;-86
2022/11/27 03:29:44;;;;;;;6.92;4.05;;;;;;;3.98;94.47;101651.22;1789148;80;20899;-86
2022/11/27 03:32:12;;;;;;;5.85;3.50;;;;;;;4.03;94.40;101652.88;1762643;80;26567;-86
2022/11/27 03:34:41;;;;;;;6.30;4.10;;;;;;;4.02;93.92;101647.70;1789154;80;20884;-85
2022/11/27 03:37:08;;;;;;;5.67;4.45;;;;;;;3.99;93.99;101649.91;1789161;79;21137;-84
2022/11/27 03:39:35;;;;;;;4.75;3.75;;;;;;;3.98;94.09;101650.80;1722409;82;20924;-87
2022/11/27 03:42:26;;;;;;;4.40;3.92;;;;;;;4.00;94.23;101649.01;1790833;79;21016;-84
2022/11/27 03:45:14;;;;;;;3.90;3.12;;;;;;;4.04;94.31;101648.53;1792178;79;20903;-84
2022/11/27 03:48:10;;;;;;;4.45;3.67;;;;;;;4.08;94.14;101652.34;1788716;80;20943;-85
2022/11/27 03:51:09;;;;;;;4.45;3.45;;;;;;;4.09;94.03;101651.90;1789918;79;21782;-86
2022/11/27 03:53:56;;;;;;;6.97;4.00;;;;;;;4.10;93.77;101647.99;1789345;80;20907;-84
2022/11/27 03:56:40;;;;;;;5.10;3.90;;;;;;;4.07;93.65;101657.55;1788762;79;20836;-85
2022/11/27 03:59:24;;;;;;;4.80;2.92;;;;;;;4.08;93.89;101652.80;1790228;79;20947;-86
2022/11/27 04:01:51;;;;;;;5.13;3.57;;;;;;;4.12;93.97;101651.87;1794676;80;20931;-86
2022/11/27 04:04:17;;;;;;;6.17;3.65;;;;;;;4.14;93.87;101654.84;1794812;80;21795;-86
2022/11/27 04:06:44;;;;;;;7.53;4.87;;;;;;;4.12;93.51;101659.20;1794790;79;20884;-86
2022/11/27 04:09:10;;;;;;;4.37;3.22;;;;;;;4.10;93.33;101657.08;1794963;80;20907;-86
2022/11/27 04:11:37;;;;;;;7.25;4.15;;;;;;;4.05;93.26;101656.30;1794811;79;20935;-82
2022/11/27 04:14:03;;;;;;;4.95;3.45;;;;;;;4.01;93.43;101662.42;1794829;80;20915;-87
2022/11/27 04:16:30;;;;;;;6.30;4.45;;;;;;;4.00;93.48;101659.84;1794920;80;21098;-85
2022/11/27 04:18:57;;;;;;;4.28;3.33;;;;;;;4.00;93.63;101659.84;1794797;79;21471;-87
2022/11/27 04:21:23;;;;;;;6.10;3.33;;;;;;;4.00;93.70;101656.80;1794877;79;21101;-85
2022/11/27 04:23:49;;;;;;;4.80;3.60;;;;;;;4.01;93.65;101661.13;1794792;79;21500;-85
2022/11/27 04:26:17;;;;;;;6.83;3.90;;;;;;;4.01;93.65;101657.23;1794998;79;20883;-87
2022/11/27 04:28:43;;;;;;;4.47;3.15;;;;;;;4.03;93.95;101663.25;1794826;79;21191;-87
2022/11/27 04:31:10;;;;;;;4.42;3.55;;;;;;;4.05;93.74;101660.20;1794914;79;20897;-88
2022/11/27 04:33:36;;;;;;;5.33;3.52;;;;;;;4.04;93.79;101660.21;1794662;80;20883;-87
2022/11/27 04:36:04;;;;;;;4.28;3.50;;;;;;;4.06;93.96;101658.45;1794791;79;20907;-86
2022/11/27 04:38:31;;;;;;;6.03;3.70;;;;;;;4.10;93.86;101657.52;1794995;79;20978;-82
2022/11/27 04:40:57;;;;;;;5.47;3.55;;;;;;;4.10;93.74;101648.44;1794791;80;21817;-86
2022/11/27 04:43:24;;;;;;;5.05;3.65;;;;;;;4.12;93.75;101650.57;1795180;79;21384;-86
2022/11/27 04:45:51;;;;;;;4.30;3.20;;;;;;;4.11;93.59;101657.92;1797364;79;20895;-85
2022/11/27 04:48:17;;;;;;;5.17;4.00;;;;;;;4.12;93.64;101650.57;1796002;79;21389;-85
2022/11/27 04:50:44;;;;;;;7.42;3.92;;;;;;;4.10;93.55;101651.88;1795566;80;20888;-86
2022/11/27 04:53:10;;;;;;;7.50;4.12;;;;;;;4.10;93.62;101655.77;1794977;79;21129;-86
2022/11/27 04:55:37;;;;;;;8.03;4.47;;;;;;;4.06;93.52;101655.85;1794866;79;20867;-86
2022/11/27 04:58:06;;;;;;;4.37;3.22;;;;;;;4.03;93.68;101653.32;1794864;80;20899;-87
2022/11/27 05:00:33;;;;;;;6.92;3.98;;;;;;;4.04;93.83;101652.42;1791042;80;20939;-88
2022/11/27 05:02:59;;;;;;;7.17;4.22;;;;;;;4.07;94.01;101661.03;1789280;79;21069;-86
2022/11/27 05:05:25;;;;;;;8.25;4.47;;;;;;;4.11;94.02;101658.81;1789290;79;21122;-86
2022/11/27 05:07:53;;;;;;;4.20;3.35;;;;;;;4.12;93.98;101659.66;1789020;80;20860;-82
2022/11/27 05:10:20;;;;;;;8.75;4.15;;;;;;;4.12;93.72;101668.30;1789144;80;21006;-88
2022/11/27 05:12:47;;;;;;;5.40;3.55;;;;;;;4.11;93.71;101669.19;1789227;80;20899;-86
2022/11/27 05:15:14;;;;;;;6.15;3.87;;;;;;;4.12;93.84;101664.40;1789212;80;20880;-86
2022/11/27 05:17:40;;;;;;;6.00;3.83;;;;;;;4.14;93.96;101670.87;1789189;79;21154;-87
2022/11/27 05:20:08;;;;;;;6.40;4.00;;;;;;;4.17;94.04;101673.85;1789094;80;20967;-87
2022/11/27 05:22:35;;;;;;;5.50;3.85;;;;;;;4.20;93.89;101670.75;1789100;79;20947;-86
2022/11/27 05:25:01;;;;;;;5.85;3.70;;;;;;;4.17;93.42;101676.45;1789099;80;20856;-86
2022/11/27 05:27:28;;;;;;;3.45;3.08;;;;;;;4.09;93.20;101677.86;1789151;79;20998;-86
2022/11/27 05:29:54;;;;;;;3.87;3.05;;;;;;;4.02;93.34;101678.39;1789146;80;21085;-87
2022/11/27 05:32:21;;;;;;;6.65;3.50;;;;;;;4.00;93.41;101679.30;1789204;79;20978;-86
2022/11/27 05:34:52;;;;;;;5.00;3.00;;;;;;;3.98;93.57;101680.64;1789431;79;20983;-86
2022/11/27 05:37:19;;;;;;;6.15;3.15;;;;;;;3.98;93.70;101686.25;1788666;80;21006;-84
2022/11/27 05:39:46;;;;;;;3.45;3.08;;;;;;;3.98;93.84;101686.25;1789244;80;20923;-87
2022/11/27 05:42:12;;;;;;;2.80;2.15;;;;;;;3.97;93.83;101691.89;1789492;80;21101;-87
2022/11/27 05:44:38;;;;;;;4.15;2.80;;;;;;;3.94;93.77;101695.39;1789233;80;20970;-86
2022/11/27 05:47:05;;;;;;;3.45;2.37;;;;;;;3.92;93.76;101700.20;1789224;80;20926;-86
2022/11/27 05:49:32;;;;;;;6.12;2.95;;;;;;;3.90;93.89;101700.66;1789169;80;20982;-86
2022/11/27 05:51:59;;;;;;;3.90;2.47;;;;;;;3.91;94.20;101699.34;1789222;79;20840;-86
2022/11/27 05:54:25;;;;;;;5.08;3.35;;;;;;;3.95;94.37;101697.09;1789257;79;21073;-87
2022/11/27 05:56:53;;;;;;;5.75;3.15;;;;;;;4.03;94.51;101712.56;1789234;79;20947;-87
2022/11/27 05:59:19;;;;;;;6.55;4.30;;;;;;;4.06;94.42;101703.88;1789346;80;20903;-86
2022/11/27 06:01:48;;;;;;;5.55;3.67;;;;;;;4.08;94.53;101706.00;1794702;79;20903;-88
2022/11/27 06:04:15;;;;;;;7.25;3.40;;;;;;;4.12;94.42;101710.27;1794784;80;21005;-85
2022/11/27 06:06:41;;;;;;;4.58;3.10;;;;;;;4.10;94.13;101709.44;1794814;79;21088;-83
2022/11/27 06:09:09;;;;;;;6.47;3.72;;;;;;;4.11;94.36;101719.81;1794649;79;21428;-84
2022/11/27 06:11:36;;;;;;;4.50;2.85;;;;;;;4.14;94.55;101721.05;1794865;79;21473;-87
2022/11/27 06:14:49;;;;;;;6.90;3.55;;;;;;;4.20;94.17;101716.62;1816481;79;22586;-87
2022/11/27 06:17:16;;;;;;;3.50;3.20;;;;;;;4.21;95.70;101720.51;1789594;80;20994;-86
2022/11/27 06:19:43;;;;;;;5.45;2.92;;;;;;;4.36;96.70;101716.81;1789605;80;21163;-87
2022/11/27 06:22:09;;;;;;;5.00;3.62;;;;;;;4.40;95.89;101716.30;1789551;80;20884;-86
2022/11/27 06:24:36;;;;;;;7.33;3.75;;;;;;;4.48;96.86;101718.34;1789586;80;21441;-84
2022/11/27 06:27:02;;;;;;;3.55;2.70;;;;;;;4.55;96.20;101718.20;1789532;80;21310;-87
2022/11/27 06:29:29;;;;;;;5.70;2.70;;;;;;;4.56;95.84;101722.97;1725444;81;21413;-86
2022/11/27 06:31:55;;;;;;;4.10;3.15;;;;;;;4.64;95.82;101724.98;1742520;82;21140;-87
2022/11/27 06:34:23;;;;;;;2.52;2.30;;;;;;;4.66;95.37;101718.02;1724916;82;20880;-86
2022/11/27 06:36:50;;;;;;;3.92;3.17;;;;;;;4.69;95.27;101714.50;1755076;81;20907;-87
2022/11/27 06:39:16;;;;;;;4.47;2.37;;;;;;;4.69;94.85;101719.28;1754905;81;20951;-86
2022/11/27 06:41:43;;;;;;;3.00;2.33;;;;;;;4.66;94.22;101714.56;1755079;81;20936;-88
2022/11/27 06:44:10;;;;;;;3.65;2.20;;;;;;;4.59;94.00;101724.20;1755014;81;21562;-86
2022/11/27 06:46:37;;;;;;;2.87;2.67;;;;;;;4.61;94.58;101725.48;1754850;81;20939;-86
2022/11/27 06:49:03;;;;;;;3.20;2.90;;;;;;;4.68;94.59;101733.14;1754930;81;21046;-86
2022/11/27 06:51:31;;;;;;;3.62;2.42;;;;;;;4.70;93.98;101740.47;1754909;81;20900;-87
2022/11/27 06:53:59;;;;;;;4.50;3.17;;;;;;;4.70;93.99;101738.31;1754845;81;20994;-82
2022/11/27 06:56:28;;;;;;;4.40;3.33;;;;;;;4.68;93.55;101746.13;1754914;81;21158;-87
2022/11/27 06:58:58;;;;;;;6.50;3.12;;;;;;;4.68;93.53;101743.98;1754945;81;20928;-86
2022/11/27 07:01:25;;;;;;;8.03;2.62;;;;;;;4.69;93.35;101745.67;1754202;81;20907;-86
2022/11/27 07:03:52;;;;;;;6.78;4.55;;;;;;;4.70;93.81;101746.96;1754883;81;20876;-85
2022/11/27 07:06:21;;;;;;;5.67;3.40;;;;;;;4.71;93.33;101753.01;1755156;81;20975;-87
2022/11/27 07:08:49;;;;;;;3.15;2.60;;;;;;;4.68;93.01;101750.47;1755093;81;21070;-85
2022/11/27 07:11:20;;;;;;;3.80;3.02;;;;;;;4.65;93.42;101751.84;1754798;81;20940;-86
2022/11/27 07:13:47;;;;;;;3.50;2.33;;;;;;;4.68;93.49;101750.47;1751104;81;20983;-87
2022/11/27 07:16:13;;;;;;;2.80;2.50;;;;;;;4.77;94.40;101758.95;1747072;82;20956;-88
2022/11/27 07:18:49;;;;;;;3.90;2.80;;;;;;;4.88;93.96;101753.57;1746968;82;21295;-87
2022/11/27 07:21:16;;;;;;;7.05;2.45;;;;;;;4.88;93.16;101764.42;1746254;82;21272;-85
2022/11/27 07:23:44;;;;;;;3.42;2.85;;;;;;;4.94;93.93;101758.66;1746973;82;20893;-88
2022/11/27 07:26:19;;;;;;;4.58;3.20;;;;;;;5.03;93.26;101768.48;1746320;82;20900;-87
2022/11/27 07:28:46;;;;;;;2.40;2.10;;;;;;;5.05;92.88;101771.47;1746487;82;20944;-87
2022/11/27 07:31:17;;;;;;;4.78;2.70;;;;;;;5.07;92.75;101768.41;1746538;82;20892;-88
2022/11/27 07:33:44;;;;;;;2.58;2.33;;;;;;;5.09;92.59;101771.84;1745566;82;21150;-87
2022/11/27 07:36:16;;;;;;;3.47;2.20;;;;;;;5.07;91.93;101773.60;1746414;82;20932;-87
2022/11/27 07:38:43;;;;;;;5.92;3.05;;;;;;;5.04;91.62;101774.94;1746437;82;20884;-84
2022/11/27 07:41:10;;;;;;;3.20;2.90;;;;;;;4.99;91.44;101777.62;1746380;82;21421;-87
2022/11/27 07:43:36;;;;;;;5.67;4.45;;;;;;;4.95;91.34;101777.70;1746424;82;20920;-87
2022/11/27 07:46:05;;;;;;;7.15;5.10;;;;;;;4.94;91.63;101782.51;1717349;82;21164;-87
2022/11/27 07:48:32;;;;;;;6.97;4.40;;;;;;;4.93;91.70;101779.48;1746250;82;20932;-85
2022/11/27 07:51:00;;;;;;;6.33;4.17;;;;;;;4.92;91.57;101783.83;1746302;82;20853;-87
2022/11/27 07:53:26;;;;;;;6.10;4.60;;;;;;;4.93;91.64;101780.78;1746275;82;20987;-88
2022/11/27 07:55:53;;;;;;;5.08;4.05;;;;;;;4.91;91.63;101776.92;1746309;82;20861;-87
2022/11/27 07:58:19;;;;;;;4.83;3.80;;;;;;;4.93;91.82;101779.03;1746372;82;21194;-86
2022/11/27 08:00:47;;;;;;;7.15;4.45;;;;;;;4.94;91.76;101778.61;1746205;82;20975;-85
2022/11/27 08:03:15;;;;;;;7.62;3.70;;;;;;;4.95;91.58;101782.45;1746309;82;21304;-88
2022/11/27 08:05:42;;;;;;;4.72;3.92;;;;;;;4.98;91.61;101784.17;1746295;82;20960;-87
2022/11/27 08:08:08;;;;;;;6.97;3.70;;;;;;;4.97;91.45;101780.69;1746339;82;20972;-85
2022/11/27 08:10:36;;;;;;;4.62;3.55;;;;;;;4.97;91.47;101787.19;1746457;82;21254;-87
2022/11/27 08:13:03;;;;;;;5.42;3.05;;;;;;;4.97;91.43;101785.05;1746000;82;20888;-87
2022/11/27 08:15:30;;;;;;;4.47;3.83;;;;;;;4.97;91.40;101787.64;1739092;82;20905;-86
2022/11/27 08:17:58;;;;;;;4.28;3.10;;;;;;;5.00;91.58;101794.07;1738645;82;20939;-89
2022/11/27 08:20:24;;;;;;;5.78;4.55;;;;;;;5.01;91.59;101788.00;1740038;82;21418;-86
2022/11/27 08:22:53;;;;;;;4.17;3.40;;;;;;;5.02;91.56;101792.75;1739627;82;20990;-87
2022/11/27 08:25:20;;;;;;;5.75;4.30;;;;;;;5.02;91.46;101794.91;1739758;82;21414;-86
2022/11/27 08:27:47;;;;;;;5.00;3.40;;;;;;;5.03;91.69;101787.98;1739437;82;20893;-87
2022/11/27 08:30:14;;;;;;;7.03;3.98;;;;;;;5.05;91.76;101792.27;1738714;82;20908;-87
2022/11/27 08:32:42;;;;;;;5.20;4.12;;;;;;;5.05;91.71;101787.07;1738449;82;20901;-86
2022/11/27 08:35:09;;;;;;;6.22;4.42;;;;;;;5.06;91.62;101790.07;1738304;82;21352;-87
2022/11/27 08:37:35;;;;;;;5.15;3.47;;;;;;;5.08;91.70;101780.95;1738265;82;21059;-85
2022/11/27 08:40:03;;;;;;;3.87;3.47;;;;;;;5.07;91.62;101785.72;1738295;82;21466;-86
2022/11/27 08:42:29;;;;;;;5.83;4.53;;;;;;;5.05;91.60;101779.72;1738486;82;20976;-84
2022/11/27 08:44:58;;;;;;;5.60;3.67;;;;;;;5.06;91.67;101780.12;1718911;82;20960;-84
2022/11/27 08:47:25;;;;;;;5.50;3.60;;;;;;;5.05;91.66;101777.97;1738879;82;21398;-86
2022/11/27 08:49:51;;;;;;;4.70;4.15;;;;;;;5.05;91.70;101779.27;1738322;82;20901;-88
2022/11/27 08:52:19;;;;;;;6.55;5.90;;;;;;;5.04;91.61;101776.23;1738345;82;20964;-87
2022/11/27 08:54:46;;;;;;;5.75;4.67;;;;;;;5.02;91.53;101776.70;1738234;82;21027;-86
2022/11/27 08:57:12;;;;;;;5.45;4.37;;;;;;;4.98;91.69;101778.52;1738764;82;20865;-85
2022/11/27 08:59:40;;;;;;;5.67;4.33;;;;;;;4.98;91.72;101780.27;1738657;82;20892;-85
2022/11/27 09:02:12;;;;;;;5.65;4.90;;;;;;;4.95;91.77;101772.06;1738320;82;20913;-87
2022/11/27 09:04:38;;;;;;;5.05;3.45;;;;;;;4.94;91.90;101778.16;1738538;82;20984;-86
2022/11/27 09:07:06;;;;;;;3.95;3.17;;;;;;;4.88;91.76;101774.36;1738260;82;20956;-88
2022/11/27 09:09:35;;;;;;;2.92;2.72;;;;;;;4.83;91.87;101776.64;1738338;82;20905;-86
2022/11/27 09:12:03;;;;;;;3.27;2.83;;;;;;;4.77;91.86;101773.25;1738408;82;21142;-87
2022/11/27 09:14:29;;;;;;;3.50;3.20;;;;;;;4.73;91.90;101770.73;1738174;82;20976;-87
2022/11/27 09:16:56;;;;;;;4.03;3.50;;;;;;;4.71;92.04;101770.78;1739417;82;20905;-89
2022/11/27 09:19:24;;;;;;;5.47;2.75;;;;;;;4.67;91.98;101767.81;1738985;82;21335;-89
2022/11/27 09:21:51;;;;;;;3.15;2.75;;;;;;;4.66;92.22;101770.42;1738403;82;21358;-88
2022/11/27 09:24:18;;;;;;;5.90;3.65;;;;;;;4.65;92.40;101771.32;1738466;82;21158;-88
2022/11/27 09:26:45;;;;;;;3.40;2.67;;;;;;;4.64;92.46;101770.44;1738359;82;21031;-90
2022/11/27 09:29:12;;;;;;;4.00;2.55;;;;;;;4.60;92.53;101767.47;1738433;82;20889;-89
2022/11/27 09:31:38;;;;;;;3.22;2.85;;;;;;;4.61;92.65;101767.06;1738419;82;20944;-88
2022/11/27 09:34:07;;;;;;;3.33;3.05;;;;;;;4.61;92.78;101760.56;1738260;82;21433;-87
2022/11/27 09:36:34;;;;;;;3.40;2.80;;;;;;;4.61;92.81;101762.71;1738470;82;21140;-87
2022/11/27 09:39:02;;;;;;;4.22;3.17;;;;;;;4.62;92.80;101763.56;1738321;82;20893;-88
2022/11/27 09:41:50;;;;;;;3.58;3.17;;;;;;;4.66;93.14;101766.08;1738547;82;20975;-88
2022/11/27 09:44:33;;;;;;;4.78;2.98;;;;;;;4.70;93.14;101760.41;1738213;82;20893;-87
2022/11/27 09:47:18;;;;;;;3.25;2.80;;;;;;;4.75;93.26;101758.57;1738328;82;20948;-86
2022/11/27 09:49:53;;;;;;;4.97;3.35;;;;;;;4.79;93.23;101756.34;1727521;82;21157;-89
2022/11/27 09:52:28;;;;;;;3.50;2.98;;;;;;;4.80;93.04;101753.29;1738306;82;20853;-88
2022/11/27 09:55:03;;;;;;;4.42;3.25;;;;;;;4.79;92.94;101753.73;1738639;82;21009;-88
2022/11/27 09:57:35;;;;;;;5.53;3.33;;;;;;;4.82;92.93;101749.77;1738616;82;20936;-90
2022/11/27 10:00:07;;;;;;;4.50;3.25;;;;;;;4.84;92.87;101762.75;1738506;82;21395;-89
2022/11/27 10:02:34;;;;;;;3.45;3.12;;;;;;;4.86;92.86;101756.64;1738530;82;21518;-89
2022/11/27 10:05:06;;;;;;;4.17;3.10;;;;;;;4.88;92.67;101752.72;1738565;82;20885;-87
2022/11/27 10:07:47;;;;;;;7.10;3.90;;;;;;;4.89;92.69;101751.82;1738365;82;20900;-88
2022/11/27 10:10:26;;;;;;;5.55;4.22;;;;;;;4.92;92.57;101757.83;1738595;82;21371;-87
2022/11/27 10:13:19;;;;;;;5.10;3.55;;;;;;;4.95;92.49;101755.62;1738546;82;21406;-87
2022/11/27 10:16:06;;;;;;;4.25;3.00;;;;;;;4.97;92.23;101761.64;1738797;82;21120;-86
2022/11/27 10:18:58;;;;;;;3.00;2.33;;;;;;;4.95;91.98;101766.02;1738285;81;20902;-87
2022/11/27 10:21:48;;;;;;;2.40;1.95;;;;;;;4.94;92.29;101759.97;1738401;82;20893;-88
2022/11/27 10:24:35;;;;;;;5.80;2.52;;;;;;;4.96;92.26;101765.14;1738568;82;20905;-86
2022/11/27 10:27:01;;;;;;;3.45;2.37;;;;;;;5.01;92.26;101767.20;1738513;82;20885;-89
2022/11/27 10:29:35;;;;;;;6.55;2.83;;;;;;;5.07;92.21;101768.82;1738592;82;21233;-86
2022/11/27 10:32:06;;;;;;;3.05;2.40;;;;;;;5.08;91.95;101762.30;1738699;82;20944;-86
2022/11/27 10:34:54;;;;;;;3.55;3.25;;;;;;;5.07;91.70;101755.41;1738540;81;20917;-89
2022/11/27 10:37:26;;;;;;;3.92;2.80;;;;;;;5.05;91.88;101753.72;1678834;85;20917;-87
2022/11/27 10:40:12;;;;;;;6.55;3.85;;;;;;;5.04;91.83;101756.73;1679339;84;21397;-88
2022/11/27 10:42:53;;;;;;;3.10;2.83;;;;;;;5.04;91.84;101753.29;1679003;84;21315;-88
2022/11/27 10:45:25;;;;;;;5.33;2.98;;;;;;;5.04;91.79;101748.94;1678541;85;21394;-87
2022/11/27 10:47:52;;;;;;;3.55;3.17;;;;;;;5.05;91.86;101748.08;1678865;85;21452;-85
2022/11/27 10:50:19;;;;;;;3.50;2.65;;;;;;;5.06;91.95;101748.47;1678691;84;20968;-88
2022/11/27 10:53:06;;;;;;;2.87;2.58;;;;;;;5.08;92.05;101749.30;1678690;84;21201;-88
2022/11/27 10:55:46;;;;;;;4.55;3.40;;;;;;;5.08;91.94;101750.61;1678602;84;21167;-86
2022/11/27 10:58:37;;;;;;;5.40;3.30;;;;;;;5.07;91.81;101752.80;1678717;85;20905;-87
2022/11/27 11:01:09;;;;;;;4.75;2.80;;;;;;;5.08;91.92;101754.50;1678998;84;21008;-87
2022/11/27 11:03:36;;;;;;;3.45;2.85;;;;;;;5.08;91.96;101748.00;1678743;85;20992;-89
2022/11/27 11:06:22;;;;;;;3.90;3.05;;;;;;;5.08;91.92;101748.00;1679031;85;21080;-89
2022/11/27 11:09:02;;;;;;;3.85;2.67;;;;;;;5.09;91.91;101747.13;1713612;83;21512;-87
2022/11/27 11:11:28;;;;;;;5.03;3.72;;;;;;;5.07;91.65;101751.92;1713229;83;20952;-88
2022/11/27 11:13:55;;;;;;;2.72;2.47;;;;;;;5.05;91.87;101747.22;1729032;80;21655;-88
2022/11/27 11:16:26;;;;;;;7.42;6.40;;;;;;;5.03;92.03;101746.39;1783795;80;20991;-87
2022/11/27 11:18:54;;;;;;;6.58;3.58;;;;;;;5.04;92.06;101750.69;1783782;80;20940;-89
2022/11/27 11:21:39;;;;;;;4.47;3.40;;;;;;;5.03;92.15;101745.09;1783647;80;21250;-87
2022/11/27 11:24:26;;;;;;;5.00;4.42;;;;;;;5.03;92.25;101751.59;1783521;80;21010;-86
2022/11/27 11:26:57;;;;;;;5.67;4.30;;;;;;;5.05;92.31;101748.52;1773118;80;20892;-86
2022/11/27 11:29:37;;;;;;;8.85;6.22;;;;;;;5.06;92.30;101748.92;1783742;80;20970;-88
2022/11/27 11:32:21;;;;;;;8.30;5.30;;;;;;;5.09;92.19;101756.66;1753035;80;20884;-88
2022/11/27 11:34:52;;;;;;;5.95;5.00;;;;;;;5.06;92.00;101751.07;1783688;80;21274;-87
2022/11/27 11:37:32;;;;;;;7.70;5.50;;;;;;;5.02;91.92;101748.11;1783672;80;20891;-86
2022/11/27 11:40:10;;;;;;;6.78;5.37;;;;;;;4.98;91.84;101748.63;1783753;80;20967;-88
2022/11/27 11:42:37;;;;;;;7.15;5.75;;;;;;;4.98;92.06;101759.03;1752864;80;21516;-87
2022/11/27 11:45:18;;;;;;;9.38;5.87;;;;;;;5.02;92.15;101757.20;1783882;80;20892;-87
2022/11/27 11:47:48;;;;;;;11.40;6.78;;;;;;;5.04;91.89;101759.34;1783914;80;21142;-86
2022/11/27 11:50:29;;;;;;;8.90;6.72;;;;;;;4.97;91.40;101757.30;1783398;80;21386;-89
2022/11/27 11:53:17;;;;;;;9.43;7.60;;;;;;;4.92;91.71;101755.69;1783951;80;20888;-87